Time;durP1;ratioP1;P1;durP2;ratioP2;P2;SDS_P1;SDS_P2;PMS_P1;PMS_P2;Temp;Humidity;BMP_temperature;BMP_pressure;BME280_temperature;BME280_humidity;BME280_pressure;Samples;Min_cycle;Max_cycle;Signal;HPM_P1;HPM_P2
2022/11/01 00:02:28;;;;;;;44.07;28.17;;;16.00;90.50;;;18.42;65.99;101153.34;4923988;29;20230;-67
2022/11/01 00:04:55;;;;;;;42.27;28.87;;;16.00;90.40;;;18.44;65.79;101154.75;4917833;29;20537;-61
2022/11/01 00:07:22;;;;;;;45.10;30.40;;;16.00;90.50;;;18.44;65.69;101159.28;4917691;29;20218;-64
2022/11/01 00:09:49;;;;;;;49.97;32.20;;;16.00;90.40;;;18.40;65.85;101153.53;4917787;29;20652;-62
2022/11/01 00:12:16;;;;;;;47.17;29.60;;;16.00;90.50;;;18.39;65.73;101141.25;4917001;29;20226;-60
2022/11/01 00:14:43;;;;;;;49.40;30.37;;;16.00;90.40;;;18.35;65.93;101145.38;4918011;29;20242;-61
2022/11/01 00:17:10;;;;;;;52.27;31.87;;;16.00;90.40;;;18.33;65.94;101142.09;4917539;29;20199;-60
2022/11/01 00:19:38;;;;;;;50.50;30.93;;;16.00;90.50;;;18.36;65.67;101131.03;4917616;29;20254;-61
2022/11/01 00:22:05;;;;;;;48.90;31.77;;;15.90;90.40;;;18.35;66.12;101128.59;4917125;29;20282;-61
2022/11/01 00:24:32;;;;;;;50.10;32.77;;;15.90;90.50;;;18.32;65.90;101129.00;4915812;29;20206;-60
2022/11/01 00:26:59;;;;;;;46.70;31.77;;;15.90;90.50;;;18.27;66.29;101127.00;4916594;29;20611;-62
2022/11/01 00:29:26;;;;;;;46.40;30.23;;;15.90;90.60;;;18.27;66.26;101119.00;4916169;29;20203;-62
2022/11/01 00:31:53;;;;;;;48.60;31.87;;;15.90;90.50;;;18.27;66.24;101121.66;4897780;29;20299;-61
2022/11/01 00:34:20;;;;;;;54.00;30.73;;;15.90;90.50;;;18.26;66.10;101120.00;4915081;29;20258;-60
2022/11/01 00:36:48;;;;;;;49.60;31.47;;;15.90;90.60;;;18.24;66.43;101114.09;4917474;29;20238;-61
2022/11/01 00:39:15;;;;;;;46.93;32.97;;;15.90;90.60;;;18.25;66.37;101113.06;4917231;29;20198;-62
2022/11/01 00:41:43;;;;;;;49.30;33.20;;;15.90;90.60;;;18.16;66.56;101119.69;4916914;29;20361;-60
2022/11/01 00:44:10;;;;;;;48.87;33.60;;;15.90;90.60;;;18.14;66.69;101111.91;4916967;29;20207;-59
2022/11/01 00:46:37;;;;;;;49.50;33.83;;;15.90;90.60;;;18.21;66.59;101106.50;4917748;29;20289;-61
2022/11/01 00:49:04;;;;;;;52.63;33.10;;;15.90;90.60;;;18.19;66.43;101105.91;4917250;29;20600;-61
2022/11/01 00:51:31;;;;;;;45.60;31.27;;;15.90;90.60;;;18.28;66.39;101107.28;4917031;29;20222;-62
2022/11/01 00:53:59;;;;;;;49.67;32.97;;;15.90;90.50;;;18.35;65.92;101109.94;4917084;29;20198;-62
2022/11/01 00:56:26;;;;;;;51.10;33.00;;;16.00;90.60;;;18.37;65.67;101105.19;4916968;29;20202;-62
2022/11/01 00:58:53;;;;;;;45.80;32.23;;;16.00;90.50;;;18.32;66.09;101097.84;4916892;29;20552;-62
2022/11/01 01:01:20;;;;;;;48.47;32.97;;;15.90;90.40;;;18.29;65.96;101084.94;4918898;29;20365;-62
2022/11/01 01:03:47;;;;;;;53.07;34.53;;;16.00;90.40;;;18.25;66.23;101075.75;4920236;29;20206;-60
2022/11/01 01:06:14;;;;;;;48.13;33.80;;;15.90;90.40;;;18.21;66.23;101079.88;4918707;29;20222;-62
2022/11/01 01:08:41;;;;;;;50.70;33.00;;;15.90;90.40;;;18.24;66.20;101084.78;4919773;29;20227;-62
2022/11/01 01:11:09;;;;;;;50.67;35.23;;;15.90;90.80;;;18.28;66.16;101099.28;4919527;29;20234;-61
2022/11/01 01:13:36;;;;;;;39.83;28.10;;;15.90;90.50;;;18.33;66.07;101096.78;4919752;29;20225;-62
2022/11/01 01:16:08;;;;;;;45.93;31.20;;;15.90;90.50;;;18.37;65.57;101090.03;4919779;29;20195;-61
2022/11/01 01:18:36;;;;;;;47.93;32.60;;;16.00;90.50;;;18.42;65.58;101090.19;4919448;29;20226;-61
2022/11/01 01:21:04;;;;;;;48.60;31.43;;;16.00;90.50;;;18.45;65.49;101081.75;4919290;29;20632;-62
2022/11/01 01:23:32;;;;;;;44.20;31.70;;;16.00;90.40;;;18.46;65.39;101072.75;4919096;29;20262;-62
2022/11/01 01:25:58;;;;;;;49.63;32.43;;;16.00;90.40;;;18.49;65.17;101066.16;4918584;29;20202;-60
2022/11/01 01:28:27;;;;;;;48.87;32.93;;;16.00;90.30;;;18.45;65.11;101065.75;4919275;29;20199;-61
2022/11/01 01:30:54;;;;;;;42.43;30.67;;;16.00;90.20;;;18.45;65.23;101055.06;4919011;29;20219;-62
2022/11/01 01:33:21;;;;;;;52.57;33.10;;;16.00;90.20;;;18.47;65.28;101053.03;4918609;29;20297;-62
2022/11/01 01:35:48;;;;;;;44.47;31.73;;;16.00;90.20;;;18.48;64.98;101049.34;4919438;29;20270;-61
2022/11/01 01:38:15;;;;;;;47.20;30.47;;;16.00;90.10;;;18.41;65.04;101042.41;4919308;29;20556;-62
2022/11/01 01:40:42;;;;;;;42.73;31.77;;;16.00;90.10;;;18.38;65.09;101051.66;4918638;29;20198;-64
2022/11/01 01:43:11;;;;;;;50.20;30.83;;;16.00;90.10;;;18.36;65.16;101053.72;4918786;29;20646;-61
2022/11/01 01:45:41;;;;;;;47.37;31.43;;;16.00;90.10;;;18.36;65.25;101051.06;4919001;29;20735;-61
2022/11/01 01:48:15;;;;;;;40.57;29.87;;;15.90;90.10;;;18.40;65.11;101052.25;4919039;29;20262;-62
2022/11/01 01:50:49;;;;;;;41.43;30.53;;;16.00;90.10;;;18.42;65.08;101044.06;4919158;29;20262;-61
2022/11/01 01:53:25;;;;;;;47.33;31.33;;;16.00;90.10;;;18.43;64.99;101040.34;4919139;29;20306;-61
2022/11/01 01:55:58;;;;;;;40.57;29.67;;;16.00;90.10;;;18.41;64.93;101040.56;4919006;29;20197;-61
2022/11/01 01:58:30;;;;;;;41.60;28.23;;;16.00;90.10;;;18.42;64.93;101039.53;4918857;29;20667;-63
2022/11/01 02:00:58;;;;;;;43.53;30.07;;;16.00;90.00;;;18.40;64.92;101030.91;4918474;29;20272;-60
2022/11/01 02:03:31;;;;;;;44.27;31.37;;;16.00;90.00;;;18.38;64.96;101033.00;4884832;29;1019044;-61
2022/11/01 02:06:05;;;;;;;42.33;31.10;;;16.00;90.00;;;18.39;64.85;101029.31;4918793;29;20198;-62
2022/11/01 02:08:34;;;;;;;46.00;30.23;;;16.00;90.00;;;18.39;64.83;101015.16;4918689;29;20203;-61
2022/11/01 02:11:06;;;;;;;41.20;29.33;;;16.00;89.90;;;18.37;64.74;101015.38;4919111;29;20731;-62
2022/11/01 02:13:34;;;;;;;47.00;30.33;;;16.00;89.90;;;18.35;64.93;101011.31;4928085;29;20280;-62
2022/11/01 02:16:27;;;;;;;43.27;29.70;;;16.00;89.80;;;18.33;64.97;101005.38;4938874;29;20249;-62
2022/11/01 02:19:24;;;;;;;43.37;30.13;;;16.00;89.90;;;18.26;65.20;100997.41;4937292;29;20197;-63
2022/11/01 02:22:01;;;;;;;39.50;27.87;;;16.00;90.00;;;18.28;65.05;100992.69;4938479;29;20233;-63
2022/11/01 02:25:09;;;;;;;39.50;28.53;;;16.00;89.80;;;18.31;64.93;100986.94;4931538;29;20206;-60
2022/11/01 02:28:03;;;;;;;43.73;30.33;;;16.00;89.90;;;18.33;64.73;100987.53;4902063;29;20248;-62
2022/11/01 02:30:43;;;;;;;40.50;29.20;;;16.00;89.80;;;18.33;64.51;100987.53;4919284;29;20199;-62
2022/11/01 02:33:28;;;;;;;39.43;29.20;;;16.00;89.70;;;18.27;64.88;100994.56;4919602;29;20290;-63
2022/11/01 02:36:05;;;;;;;42.00;27.90;;;16.00;89.60;;;18.30;64.85;100987.97;4919810;29;20199;-62
2022/11/01 02:38:39;;;;;;;42.73;28.50;;;16.00;89.50;;;18.33;64.63;100990.19;4919972;29;20283;-62
2022/11/01 02:41:15;;;;;;;46.47;30.27;;;16.00;89.50;;;18.34;64.84;100983.84;4920162;29;20286;-60
2022/11/01 02:43:53;;;;;;;43.63;30.10;;;16.00;89.50;;;18.32;64.88;100975.25;4919157;29;20234;-62
2022/11/01 02:49:14;;;;;;;42.60;27.60;;;16.00;89.40;;;18.38;64.62;100966.34;4919691;29;20254;-61
2022/11/01 02:51:43;;;;;;;44.50;29.17;;;16.00;89.40;;;18.32;64.39;100963.75;4918947;29;20297;-61
2022/11/01 02:54:20;;;;;;;40.73;28.37;;;16.00;89.40;;;18.22;64.68;100949.09;4919077;29;20202;-61
2022/11/01 02:56:47;;;;;;;37.37;27.73;;;15.90;89.30;;;18.23;64.92;100955.25;4918921;29;20615;-61
2022/11/01 02:59:24;;;;;;;36.47;26.67;;;16.00;89.30;;;18.23;64.74;100960.56;4919163;29;20254;-62
2022/11/01 03:02:00;;;;;;;38.63;27.47;;;16.00;89.30;;;18.26;64.80;100971.59;4918204;29;20225;-61
2022/11/01 03:04:30;;;;;;;41.87;28.60;;;16.00;89.30;;;18.27;64.65;100965.25;4919084;29;20202;-62
2022/11/01 03:07:03;;;;;;;37.63;27.03;;;16.00;89.30;;;18.27;64.52;100967.09;4917831;29;20209;-61
2022/11/01 03:09:32;;;;;;;40.63;27.20;;;16.00;89.30;;;18.30;64.57;100957.84;4918666;29;20238;-61
2022/11/01 03:12:05;;;;;;;38.97;25.70;;;16.00;89.30;;;18.31;64.53;100965.59;4918104;29;20226;-61
2022/11/01 03:14:45;;;;;;;42.53;28.13;;;15.90;89.20;;;18.31;64.48;100960.28;4918790;29;20229;-62
2022/11/01 03:17:24;;;;;;;38.23;26.33;;;16.00;89.30;;;18.35;64.30;100960.66;4918757;29;20277;-62
2022/11/01 03:20:04;;;;;;;35.83;26.40;;;15.90;89.20;;;18.34;64.37;100957.19;4918414;29;20206;-61
2022/11/01 03:22:42;;;;;;;40.10;27.37;;;15.90;89.10;;;18.31;64.39;100962.13;4917638;29;20218;-62
2022/11/01 03:28:12;;;;;;;36.40;25.90;;;15.90;89.00;;;18.32;64.30;100945.94;4899673;29;20203;-61
2022/11/01 03:30:46;;;;;;;33.10;25.87;;;15.90;89.10;;;18.32;64.27;100937.94;4917751;29;20203;-61
2022/11/01 03:33:15;;;;;;;32.43;24.77;;;15.90;89.00;;;18.36;64.20;100943.63;4917054;29;20218;-61
2022/11/01 03:35:48;;;;;;;38.67;27.63;;;16.00;89.20;;;18.35;64.20;100942.00;4917937;29;20782;-61
2022/11/01 03:38:22;;;;;;;38.53;26.77;;;15.90;89.00;;;18.37;64.00;100934.59;4919536;29;20313;-64
2022/11/01 03:40:59;;;;;;;37.77;28.13;;;15.90;88.90;;;18.32;63.94;100931.78;4919727;29;20218;-61
2022/11/01 03:43:29;;;;;;;34.53;26.33;;;15.90;88.90;;;18.31;64.14;100925.63;4920807;29;20202;-63
2022/11/01 03:45:57;;;;;;;39.40;25.80;;;15.90;88.80;;;18.34;64.08;100930.53;4920991;29;20719;-62
2022/11/01 03:48:24;;;;;;;35.67;26.83;;;15.90;88.80;;;18.36;63.88;100927.63;4919365;29;20198;-61
2022/11/01 03:50:56;;;;;;;35.87;24.73;;;15.90;88.80;;;18.41;64.04;100935.78;4916675;29;20306;-63
2022/11/01 03:53:24;;;;;;;36.90;26.23;;;15.90;88.80;;;18.43;63.99;100937.19;4918145;29;20214;-62
2022/11/01 03:55:51;;;;;;;34.83;24.87;;;15.90;88.80;;;18.45;63.81;100943.13;4917311;29;20262;-61
2022/11/01 03:58:18;;;;;;;35.03;26.37;;;16.00;88.80;;;18.46;63.52;100943.97;4921927;29;20206;-62
2022/11/01 04:00:46;;;;;;;34.10;24.83;;;16.00;88.60;;;18.48;63.52;100941.88;4918857;29;20203;-61
2022/11/01 04:03:13;;;;;;;34.93;26.33;;;16.00;88.60;;;18.47;63.52;100935.75;4917120;29;20226;-61
2022/11/01 04:05:41;;;;;;;31.10;23.53;;;16.00;88.50;;;18.47;63.57;100930.41;4917361;29;20250;-62
2022/11/01 04:08:11;;;;;;;38.20;26.30;;;16.00;88.50;;;18.49;63.36;100932.88;4917678;29;20191;-64
2022/11/01 04:10:38;;;;;;;36.87;23.77;;;16.00;88.40;;;18.50;63.49;100921.97;4916997;29;20204;-62
2022/11/01 04:13:05;;;;;;;32.53;25.63;;;16.00;89.00;;;18.54;63.37;100927.69;4917260;29;20219;-62
2022/11/01 04:21:15;;;;;;;36.47;24.53;;;16.00;88.20;;;18.53;63.18;100942.88;4916832;29;20237;-63
2022/11/01 04:23:44;;;;;;;32.30;23.53;;;16.00;88.10;;;18.55;63.19;100954.13;4902276;29;20215;-62
2022/11/01 04:26:14;;;;;;;33.97;23.97;;;16.10;88.20;;;18.60;63.07;100956.94;4903701;29;20209;-61
2022/11/01 04:28:43;;;;;;;34.93;26.07;;;16.10;88.20;;;18.58;63.12;100959.03;4917276;29;20597;-62
2022/11/01 04:31:10;;;;;;;35.60;24.23;;;16.10;88.00;;;18.56;62.84;100957.59;4916358;29;20225;-65
2022/11/01 04:33:37;;;;;;;32.00;24.70;;;16.10;87.90;;;18.59;63.07;100960.63;4916793;29;20218;-62
2022/11/01 04:36:05;;;;;;;35.83;25.27;;;16.10;87.90;;;18.55;62.94;100955.97;4917011;29;20202;-62
2022/11/01 04:38:32;;;;;;;34.73;25.37;;;16.10;87.80;;;18.56;63.20;100963.75;4917573;29;20249;-62
2022/11/01 04:41:01;;;;;;;31.50;22.43;;;16.10;87.90;;;18.56;62.79;100960.28;4916261;29;20214;-63
2022/11/01 04:43:28;;;;;;;31.53;22.60;;;16.10;87.80;;;18.51;63.13;100954.78;4916985;29;20258;-61
2022/11/01 04:45:56;;;;;;;34.43;24.27;;;16.10;87.70;;;18.56;63.17;100958.44;4917144;29;20194;-61
2022/11/01 04:48:25;;;;;;;31.57;22.67;;;16.10;87.80;;;18.55;63.04;100951.47;4917426;29;20600;-63
2022/11/01 04:50:52;;;;;;;35.67;24.70;;;16.10;87.70;;;18.57;63.02;100957.38;4916744;29;20628;-63
2022/11/01 04:53:19;;;;;;;31.17;21.70;;;16.10;87.60;;;18.62;62.85;100954.88;4917251;29;20270;-61
2022/11/01 04:55:45;;;;;;;29.97;22.70;;;16.10;87.70;;;18.65;62.66;100954.44;4917158;29;20199;-63
2022/11/01 04:58:14;;;;;;;29.33;21.33;;;16.10;87.50;;;18.65;62.66;100954.44;4917260;29;20246;-62
2022/11/01 05:00:42;;;;;;;31.73;21.87;;;16.10;87.50;;;18.66;62.59;100955.25;4916216;29;20194;-61
2022/11/01 05:03:10;;;;;;;31.53;23.27;;;16.20;87.60;;;18.70;62.48;100954.59;4915709;29;20270;-61
2022/11/01 05:05:38;;;;;;;33.27;22.97;;;16.20;87.50;;;18.67;62.43;100947.03;4916850;29;20242;-62
2022/11/01 05:08:07;;;;;;;27.10;21.63;;;16.20;87.40;;;18.69;62.38;100950.28;4918178;29;20644;-60
2022/11/01 05:10:38;;;;;;;29.50;21.53;;;16.20;87.30;;;18.73;62.49;100951.44;4917186;29;20329;-63
2022/11/01 05:13:05;;;;;;;29.47;22.03;;;16.20;87.20;;;18.74;62.36;100949.59;4916437;29;20215;-61
2022/11/01 05:15:34;;;;;;;29.17;22.03;;;16.20;87.20;;;18.76;62.10;100963.53;4918671;29;20700;-60
2022/11/01 05:18:14;;;;;;;28.97;20.30;;;16.20;87.30;;;18.77;62.10;100947.31;4916838;29;20613;-61
2022/11/01 05:20:41;;;;;;;27.80;20.07;;;16.20;87.20;;;18.80;62.24;100943.41;4899030;29;20202;-64
2022/11/01 05:23:08;;;;;;;33.87;21.87;;;16.20;87.30;;;18.82;62.31;100955.47;4917653;29;20330;-62
2022/11/01 05:25:35;;;;;;;32.77;21.40;;;16.20;87.40;;;18.85;62.25;100944.34;4917142;29;20197;-62
2022/11/01 05:28:07;;;;;;;30.80;22.30;;;16.20;87.40;;;18.87;62.06;100942.25;4917241;29;20250;-62
2022/11/01 05:30:37;;;;;;;28.73;21.67;;;16.30;87.40;;;18.89;61.96;100934.03;4916309;29;20286;-62
2022/11/01 05:33:06;;;;;;;30.53;22.03;;;16.30;87.40;;;18.84;62.03;100937.38;4915644;29;20222;-63
2022/11/01 05:35:35;;;;;;;30.13;20.47;;;16.30;87.20;;;18.80;62.24;100936.19;4916863;29;20573;-62
2022/11/01 05:38:03;;;;;;;28.63;21.80;;;16.30;87.20;;;18.78;62.56;100948.94;4916730;29;20611;-62
2022/11/01 05:40:31;;;;;;;29.07;21.00;;;16.30;87.40;;;18.76;62.49;100940.34;4916156;29;20585;-62
2022/11/01 05:42:58;;;;;;;27.37;20.80;;;16.30;87.40;;;18.73;62.46;100935.44;4915847;29;20262;-62
2022/11/01 05:45:26;;;;;;;28.20;20.57;;;16.20;87.20;;;18.69;62.62;100938.78;4916824;29;20218;-62
2022/11/01 05:47:55;;;;;;;31.03;20.90;;;16.20;87.20;;;18.67;62.77;100940.88;4919349;29;20209;-62
2022/11/01 05:50:22;;;;;;;28.20;21.47;;;16.20;87.30;;;18.69;62.54;100944.13;4919717;29;20195;-63
2022/11/01 05:52:49;;;;;;;28.63;20.60;;;16.20;87.60;;;18.70;62.50;100945.75;4919647;29;20229;-61
2022/11/01 05:55:16;;;;;;;26.67;21.30;;;16.20;87.60;;;18.70;62.84;100951.91;4919628;29;20320;-62
2022/11/01 05:57:43;;;;;;;25.50;20.37;;;16.20;87.70;;;18.69;62.60;100950.28;4919626;29;20581;-62
2022/11/01 06:00:12;;;;;;;24.40;19.40;;;16.20;87.70;;;18.70;62.62;100949.25;4920434;29;20195;-63
2022/11/01 06:02:39;;;;;;;28.37;21.17;;;16.20;87.70;;;18.70;62.55;100953.75;4917641;29;20733;-62
2022/11/01 06:05:08;;;;;;;25.67;19.33;;;16.20;87.70;;;18.69;62.69;100960.94;4918576;29;20187;-62
2022/11/01 06:07:35;;;;;;;25.23;19.60;;;16.20;87.70;;;18.71;62.58;100958.88;4919013;29;20210;-62
2022/11/01 06:10:04;;;;;;;26.40;19.47;;;16.20;87.70;;;18.74;62.63;100963.75;4919219;29;20202;-63
2022/11/01 06:12:31;;;;;;;23.03;19.67;;;16.20;87.70;;;18.73;62.42;100967.44;4918696;29;20229;-62
2022/11/01 06:14:58;;;;;;;26.03;19.47;;;16.20;87.60;;;18.72;62.70;100965.84;4913861;29;20621;-62
2022/11/01 06:17:27;;;;;;;24.90;19.50;;;16.20;87.50;;;18.70;62.46;100962.59;4899665;29;20284;-62
2022/11/01 06:19:54;;;;;;;28.30;20.60;;;16.20;87.40;;;18.71;62.64;100969.53;4915085;29;20199;-62
2022/11/01 06:22:22;;;;;;;31.43;20.20;;;16.20;87.50;;;18.67;62.65;100972.88;4911685;29;20271;-61
2022/11/01 06:24:50;;;;;;;32.33;21.00;;;16.20;87.40;;;18.63;62.70;100972.50;4919338;29;20604;-62
2022/11/01 06:27:17;;;;;;;24.33;19.57;;;16.20;87.40;;;18.59;62.68;100965.19;4919087;29;20270;-62
2022/11/01 06:29:44;;;;;;;27.57;20.13;;;16.10;87.30;;;18.57;62.95;100967.22;4918560;29;20257;-62
2022/11/01 06:32:11;;;;;;;19.70;16.53;;;16.10;87.40;;;18.54;62.98;100978.34;4919318;29;20230;-63
2022/11/01 06:34:38;;;;;;;22.90;17.27;;;16.10;87.50;;;18.57;62.82;100980.56;4918608;29;20218;-61
2022/11/01 06:37:10;;;;;;;27.63;17.37;;;16.10;87.60;;;18.58;62.83;100983.03;4919074;29;20206;-62
2022/11/01 06:39:39;;;;;;;21.83;15.70;;;16.10;87.70;;;18.62;62.71;100986.88;4919370;29;20194;-62
2022/11/01 06:42:06;;;;;;;26.73;19.13;;;16.10;87.70;;;18.68;62.84;100985.19;4918018;29;20222;-62
2022/11/01 06:44:33;;;;;;;22.47;15.87;;;16.10;87.80;;;18.72;62.66;100987.19;4918266;29;20242;-62
2022/11/01 06:47:00;;;;;;;24.13;15.93;;;16.10;87.70;;;18.77;62.70;101000.66;4918753;29;20555;-63
2022/11/01 06:49:28;;;;;;;23.30;16.67;;;16.10;87.80;;;18.82;62.43;100992.81;4918537;29;20202;-62
2022/11/01 06:51:55;;;;;;;21.20;15.53;;;16.20;87.70;;;18.86;62.19;100999.31;4918275;29;20270;-61
2022/11/01 06:54:22;;;;;;;22.47;14.83;;;16.20;87.70;;;18.94;62.30;101003.56;4918767;29;20218;-61
2022/11/01 06:56:50;;;;;;;21.37;13.67;;;16.20;87.70;;;18.99;61.83;101009.03;4918573;29;20199;-62
2022/11/01 06:59:17;;;;;;;16.87;12.83;;;16.30;87.40;;;19.05;61.46;101010.00;4917181;29;20266;-63
2022/11/01 07:01:44;;;;;;;18.30;11.97;;;16.30;87.30;;;19.10;61.47;101013.63;4918356;29;20681;-60
2022/11/01 07:04:12;;;;;;;15.03;12.43;;;16.30;87.10;;;19.15;61.06;101018.28;4918663;29;20238;-61
2022/11/01 07:06:39;;;;;;;16.57;11.83;;;16.40;87.00;;;19.18;60.73;101018.69;4918283;29;20191;-62
2022/11/01 07:09:06;;;;;;;15.10;12.47;;;16.40;86.60;;;19.24;60.99;101022.28;4918581;29;20235;-61
2022/11/01 07:11:33;;;;;;;17.97;11.67;;;16.50;86.90;;;19.28;60.98;101026.16;4918067;29;20274;-62
2022/11/01 07:14:02;;;;;;;16.27;10.80;;;16.50;86.20;;;19.35;60.85;101018.88;4917976;29;20247;-61
2022/11/01 07:16:33;;;;;;;18.37;11.53;;;16.60;86.60;;;19.39;60.06;101018.22;4918671;29;20198;-61
2022/11/01 07:19:00;;;;;;;17.80;11.40;;;16.60;85.90;;;19.46;60.50;101031.50;4918670;29;20257;-63
2022/11/01 07:21:27;;;;;;;10.80;8.93;;;16.70;85.80;;;19.48;60.35;101035.56;4918384;29;20269;-63
2022/11/01 07:23:54;;;;;;;14.13;9.37;;;16.70;85.50;;;19.49;59.83;101042.53;4918482;29;20233;-62
2022/11/01 07:26:22;;;;;;;15.97;11.50;;;16.80;85.20;;;19.54;59.72;101040.00;4915539;29;20711;-65
2022/11/01 07:28:49;;;;;;;12.53;8.40;;;16.80;85.00;;;19.54;59.70;101040.00;4918657;29;20265;-63
2022/11/01 07:31:18;;;;;;;12.10;8.20;;;16.90;84.40;;;19.56;59.40;101037.91;4915736;29;20229;-62
2022/11/01 07:33:45;;;;;;;16.90;9.17;;;16.90;84.40;;;19.61;59.98;101037.25;4918324;29;20226;-63
2022/11/01 07:36:12;;;;;;;15.50;8.83;;;17.00;84.30;;;19.67;59.68;101043.53;4918607;29;20242;-60
2022/11/01 07:38:39;;;;;;;11.97;7.77;;;17.00;84.20;;;19.71;59.47;101050.84;4919124;29;20313;-63
2022/11/01 07:41:06;;;;;;;12.03;7.93;;;17.10;84.70;;;19.79;59.24;101047.88;4917823;29;20226;-63
2022/11/01 07:43:34;;;;;;;9.13;6.47;;;17.10;83.80;;;19.85;59.05;101046.97;4918361;29;20217;-62
2022/11/01 07:46:04;;;;;;;11.43;6.50;;;17.20;83.70;;;19.90;58.96;101052.44;4917855;29;20191;-61
2022/11/01 07:48:35;;;;;;;10.17;5.60;;;17.20;83.30;;;19.95;58.71;101041.88;4920158;29;20565;-63
2022/11/01 07:51:04;;;;;;;7.47;5.50;;;17.30;83.20;;;19.96;58.73;101048.88;4920134;29;20259;-61
2022/11/01 07:53:33;;;;;;;9.60;5.37;;;17.40;82.80;;;19.99;58.08;101051.06;4917447;29;20261;-62
2022/11/01 07:56:00;;;;;;;9.93;5.20;;;17.40;82.50;;;20.04;57.97;101051.19;4918581;29;20270;-62
2022/11/01 07:58:28;;;;;;;9.03;5.00;;;17.50;82.30;;;20.14;58.32;101051.47;4917213;29;20210;-61
2022/11/01 08:00:55;;;;;;;8.70;5.47;;;17.60;82.10;;;20.17;57.94;101061.69;4913782;29;20710;-63
2022/11/01 08:03:22;;;;;;;6.70;5.03;;;17.60;81.70;;;20.23;57.97;101058.13;4915643;29;20218;-62
2022/11/01 08:05:51;;;;;;;7.80;4.70;;;17.70;81.60;;;20.31;57.38;101069.53;4916797;29;20510;-61
2022/11/01 08:08:18;;;;;;;8.73;4.90;;;17.80;81.60;;;20.39;57.75;101069.22;4905008;29;20271;-61
2022/11/01 08:10:45;;;;;;;7.60;4.87;;;17.80;81.50;;;20.44;57.47;101072.00;4899855;29;20572;-64
2022/11/01 08:13:16;;;;;;;7.90;4.80;;;17.90;81.20;;;20.48;57.45;101071.31;4916851;29;20198;-62
2022/11/01 08:15:44;;;;;;;7.27;5.33;;;17.90;81.00;;;20.54;56.84;101069.59;4918428;29;20225;-63
2022/11/01 08:18:12;;;;;;;7.73;4.77;;;17.90;80.90;;;20.58;57.07;101068.06;4915782;29;20215;-64
2022/11/01 08:20:42;;;;;;;6.73;4.67;;;18.00;80.80;;;20.66;56.64;101075.72;4918214;29;20237;-61
2022/11/01 08:23:11;;;;;;;6.43;4.80;;;18.00;80.70;;;20.71;56.74;101078.53;4916383;29;20206;-63
2022/11/01 08:25:38;;;;;;;7.70;4.50;;;18.10;80.70;;;20.75;56.32;101079.72;4915414;29;20187;-63
2022/11/01 08:28:09;;;;;;;5.33;4.23;;;18.20;80.70;;;20.79;56.23;101083.53;4912954;29;20214;-61
2022/11/01 08:30:38;;;;;;;13.67;5.40;;;18.20;80.50;;;20.83;56.67;101098.06;4916551;29;20214;-62
2022/11/01 08:33:05;;;;;;;7.47;4.13;;;18.20;80.50;;;20.89;56.58;101091.81;4917047;29;20237;-63
2022/11/01 08:35:34;;;;;;;6.63;4.30;;;18.30;80.70;;;20.85;56.27;101106.69;4900946;29;20561;-61
2022/11/01 08:38:04;;;;;;;8.47;4.67;;;18.30;80.40;;;20.82;56.54;101107.16;4917012;29;20209;-61
2022/11/01 08:40:33;;;;;;;7.03;4.27;;;18.30;80.00;;;20.76;56.46;101103.53;4915003;29;20747;-61
2022/11/01 08:43:00;;;;;;;5.77;4.00;;;18.30;79.90;;;20.85;56.33;101112.03;4915148;29;20194;-62
2022/11/01 08:45:28;;;;;;;6.40;4.33;;;18.40;80.10;;;20.98;56.20;101111.81;4916816;29;20195;-64
2022/11/01 08:47:58;;;;;;;5.23;4.30;;;18.40;79.90;;;20.99;56.15;101116.09;4916869;29;20212;-63
2022/11/01 08:50:26;;;;;;;7.07;4.20;;;18.40;79.90;;;21.12;56.25;101123.94;4916531;29;20199;-62
2022/11/01 08:52:53;;;;;;;5.07;4.37;;;18.50;80.20;;;21.23;56.18;101124.97;4917002;29;20285;-62
2022/11/01 08:55:21;;;;;;;4.87;4.10;;;18.50;80.00;;;21.26;55.71;101133.34;4917249;29;20678;-62
2022/11/01 08:57:50;;;;;;;7.10;4.00;;;18.60;79.90;;;21.35;55.93;101137.28;4916058;29;20273;-62
2022/11/01 09:00:18;;;;;;;8.33;4.57;;;18.70;80.00;;;21.42;54.79;101140.66;4917381;29;20214;-61
2022/11/01 09:02:45;;;;;;;8.13;3.60;;;18.60;78.90;;;21.44;54.74;101137.75;4917464;29;20236;-63
2022/11/01 09:05:13;;;;;;;4.47;3.50;;;18.70;78.40;;;21.40;52.97;101148.13;4917872;29;20559;-63
2022/11/01 09:07:40;;;;;;;2.70;2.40;;;18.70;76.60;;;21.41;53.36;101144.41;4916742;29;20278;-62
2022/11/01 09:10:09;;;;;;;5.67;2.70;;;18.80;75.80;;;21.42;51.31;101159.41;4914431;29;20214;-64
2022/11/01 09:12:37;;;;;;;4.40;2.40;;;18.80;72.90;;;21.51;50.93;101160.66;4913398;29;20218;-62
2022/11/01 09:15:06;;;;;;;2.80;1.90;;;18.80;72.10;;;21.56;48.36;101179.53;4911705;29;20243;-60
2022/11/01 09:17:33;;;;;;;4.63;1.40;;;18.80;69.10;;;21.77;48.33;101156.66;4913161;29;20199;-59
2022/11/01 09:20:01;;;;;;;4.83;1.80;;;19.00;68.00;;;21.99;44.15;101167.56;4915143;29;20231;-63
2022/11/01 09:22:28;;;;;;;3.07;1.43;;;19.10;62.20;;;22.23;43.05;101174.47;4916156;29;20271;-61
2022/11/01 09:24:57;;;;;;;2.97;1.50;;;19.30;60.40;;;22.48;42.58;101168.75;4917750;29;20194;-62
2022/11/01 09:27:24;;;;;;;2.17;1.23;;;19.50;60.00;;;22.65;41.82;101181.16;4917052;29;20210;-59
2022/11/01 09:29:51;;;;;;;2.97;1.37;;;19.60;58.90;;;22.75;40.85;101183.19;4918546;29;20199;-61
2022/11/01 09:32:20;;;;;;;1.40;1.30;;;19.80;57.80;;;22.80;39.53;101186.78;4915871;29;20218;-58
2022/11/01 09:34:50;;;;;;;2.80;1.60;;;19.80;56.30;;;22.74;39.22;101198.50;4918032;29;20309;-60
2022/11/01 09:37:17;;;;;;;3.70;3.13;;;19.90;55.10;;;22.72;39.31;101189.88;4917248;29;20191;-60
2022/11/01 09:39:44;;;;;;;5.83;1.27;;;20.00;55.10;;;22.72;39.42;101179.13;4928595;29;20547;-62
2022/11/01 09:42:21;;;;;;;0.93;0.80;;;20.00;55.00;;;22.75;39.57;101197.41;4916582;29;20222;-61
2022/11/01 09:44:52;;;;;;;3.70;1.30;;;20.00;55.50;;;22.77;38.65;101194.50;4918902;29;20190;-62
2022/11/01 09:47:27;;;;;;;3.50;1.33;;;20.00;54.80;;;22.58;39.24;101204.59;4919169;29;20361;-59
2022/11/01 09:50:05;;;;;;;2.90;1.57;;;20.00;54.50;;;22.60;39.03;101213.25;4914155;29;20637;-62
2022/11/01 09:52:32;;;;;;;4.30;1.57;;;20.00;54.20;;;22.69;39.29;101211.84;4910362;29;20613;-60
2022/11/01 09:54:59;;;;;;;4.10;1.40;;;19.90;54.90;;;22.79;39.43;101217.38;4917989;29;20695;-61
2022/11/01 09:57:34;;;;;;;9.70;2.00;;;20.00;55.30;;;22.87;38.98;101219.66;4915881;29;20262;-60
2022/11/01 10:00:12;;;;;;;9.10;2.73;;;20.00;54.80;;;22.97;37.98;101229.72;4919411;29;20681;-61
2022/11/01 10:03:32;;;;;;;2.90;1.60;;;20.10;53.90;;;23.21;38.58;101230.38;4917407;29;20234;-60
2022/11/01 10:06:14;;;;;;;5.60;2.00;;;20.20;54.00;;;23.29;37.68;101240.72;4863414;29;20612;-60
2022/11/01 10:08:57;;;;;;;4.97;1.73;;;20.30;53.10;;;23.40;37.85;101240.66;4914346;29;20198;-62
2022/11/01 10:12:02;;;;;;;10.70;1.77;;;20.40;53.40;;;23.41;37.48;101249.53;4918327;29;20222;-60
2022/11/01 10:14:53;;;;;;;3.23;1.80;;;20.60;52.60;;;23.50;37.60;101251.56;4900405;29;20214;-63
2022/11/01 10:17:46;;;;;;;8.23;1.63;;;20.70;52.80;;;23.57;36.90;101262.13;4912439;29;20203;-60
2022/11/01 10:20:25;;;;;;;5.60;2.17;;;20.90;51.60;;;23.58;36.36;101264.56;4919038;29;20195;-60
2022/11/01 10:22:52;;;;;;;5.23;1.77;;;20.90;50.40;;;23.56;36.28;101260.50;4919259;29;20207;-61
2022/11/01 10:25:23;;;;;;;5.10;2.50;;;20.90;49.90;;;23.45;36.14;101267.59;4920342;29;20214;-61
2022/11/01 10:28:04;;;;;;;7.57;2.03;;;20.90;49.60;;;23.28;35.67;101265.94;4918810;29;20206;-61